Time;durP1;ratioP1;P1;durP2;ratioP2;P2;SDS_P1;SDS_P2;PMS_P1;PMS_P2;Temp;Humidity;BMP_temperature;BMP_pressure;BME280_temperature;BME280_humidity;BME280_pressure;Samples;Min_cycle;Max_cycle;Signal;HPM_P1;HPM_P2
2022/09/15 00:00:18;;;;;;;9.47;6.43;;;;;;;13.95;86.56;99686.69;5029412;28;20213;-84
2022/09/15 00:02:46;;;;;;;8.90;7.63;;;;;;;13.94;86.56;99699.22;5029683;28;20206;-83
2022/09/15 00:05:13;;;;;;;12.97;8.00;;;;;;;13.92;86.73;99697.66;5029922;28;20202;-83
2022/09/15 00:07:39;;;;;;;11.60;8.23;;;;;;;13.89;86.83;99702.31;5031373;28;20213;-84
2022/09/15 00:10:07;;;;;;;12.60;8.40;;;;;;;13.87;87.48;99696.25;5029744;28;20214;-84
2022/09/15 00:12:34;;;;;;;13.90;9.17;;;;;;;13.86;87.22;99697.25;5030964;28;20226;-84
2022/09/15 00:15:01;;;;;;;12.27;9.07;;;;;;;13.84;87.75;99701.88;5030856;28;20230;-84
2022/09/15 00:17:27;;;;;;;11.90;8.77;;;;;;;13.83;87.86;99694.00;5028987;28;20210;-84
2022/09/15 00:19:57;;;;;;;12.73;9.20;;;;;;;13.81;87.66;99698.63;5029544;28;20691;-84
2022/09/15 00:22:24;;;;;;;13.10;9.33;;;;;;;13.78;87.75;99697.13;5030398;28;20260;-84
2022/09/15 00:24:50;;;;;;;14.90;9.67;;;;;;;13.77;88.24;99690.06;5029230;28;20213;-84
2022/09/15 00:27:17;;;;;;;16.40;9.90;;;;;;;13.76;88.24;99687.53;5034231;28;20206;-84
2022/09/15 00:29:44;;;;;;;12.97;10.60;;;;;;;13.73;88.64;99693.16;5028074;28;20210;-84
2022/09/15 00:32:10;;;;;;;15.00;11.03;;;;;;;13.72;88.40;99691.47;5029069;28;20226;-84
2022/09/15 00:34:37;;;;;;;12.47;11.07;;;;;;;13.69;88.74;99687.25;5026113;28;20230;-83
2022/09/15 00:37:05;;;;;;;17.73;11.17;;;;;;;13.66;88.60;99690.19;5029029;28;20613;-83
2022/09/15 00:39:31;;;;;;;19.27;12.10;;;;;;;13.64;88.72;99697.50;5027042;28;20206;-85
2022/09/15 00:41:58;;;;;;;15.37;11.57;;;;;;;13.62;89.15;99694.13;5033252;28;20692;-84
2022/09/15 00:44:49;;;;;;;18.97;11.50;;;;;;;13.60;89.11;99693.44;5028589;28;21319;-83
2022/09/15 00:47:16;;;;;;;16.83;11.43;;;;;;;13.58;89.52;99694.56;5025790;28;20213;-85
2022/09/15 00:49:43;;;;;;;16.10;11.20;;;;;;;13.56;89.60;99700.06;5030591;28;20214;-83
2022/09/15 00:52:15;;;;;;;17.23;10.73;;;;;;;13.54;89.97;99699.34;5033081;28;20222;-83
2022/09/15 00:54:46;;;;;;;13.60;10.23;;;;;;;13.52;89.60;99690.59;5027039;28;20218;-84
2022/09/15 00:57:22;;;;;;;15.30;10.20;;;;;;;13.50;89.83;99695.25;5027036;28;20573;-83
2022/09/15 00:59:50;;;;;;;11.80;9.37;;;;;;;13.49;90.22;99698.91;5027537;28;20209;-84
2022/09/15 01:02:21;;;;;;;16.47;9.53;;;;;;;13.47;90.30;99692.84;5030942;28;20229;-83
2022/09/15 01:04:48;;;;;;;16.43;10.17;;;;;;;13.44;89.69;99693.97;5028465;28;20276;-83
2022/09/15 01:07:27;;;;;;;13.73;8.83;;;;;;;13.43;89.89;99694.97;5028035;28;20202;-84
2022/09/15 01:09:57;;;;;;;19.73;10.43;;;;;;;13.41;90.07;99693.41;5022380;28;20575;-83
2022/09/15 01:12:26;;;;;;;16.53;10.60;;;;;;;13.40;89.93;99686.38;5028355;28;20230;-84
2022/09/15 01:14:52;;;;;;;17.13;11.37;;;;;;;13.38;90.16;99689.19;5028518;28;20226;-83
2022/09/15 01:17:29;;;;;;;19.83;12.13;;;;;;;13.37;89.99;99686.66;5028767;28;20214;-84
2022/09/15 01:20:32;;;;;;;20.20;12.93;;;;;;;13.36;90.30;99684.97;5029693;28;20218;-84
2022/09/15 01:23:21;;;;;;;19.63;12.93;;;;;;;13.33;90.07;99686.06;5026129;28;20605;-84
2022/09/15 01:26:08;;;;;;;23.10;13.70;;;;;;;13.32;90.17;99692.41;5023408;28;20214;-84
2022/09/15 01:28:56;;;;;;;21.20;13.70;;;;;;;13.31;90.74;99692.53;5027539;28;20769;-85
2022/09/15 01:31:29;;;;;;;19.53;13.90;;;;;;;13.29;90.41;99694.50;5027153;28;20252;-83
2022/09/15 01:34:01;;;;;;;26.33;14.20;;;;;;;13.27;90.42;99691.97;5029072;28;20198;-84
2022/09/15 01:36:37;;;;;;;22.47;14.40;;;;;;;13.26;91.02;99689.41;5029208;28;20225;-86
2022/09/15 01:39:13;;;;;;;23.77;14.90;;;;;;;13.23;91.29;99689.72;5021412;28;20373;-84
2022/09/15 01:41:45;;;;;;;22.70;15.30;;;;;;;13.21;91.12;99695.22;5029936;28;20221;-84
2022/09/15 01:44:15;;;;;;;24.43;16.07;;;;;;;13.20;91.37;99690.84;5032093;28;20562;-86
2022/09/15 01:46:46;;;;;;;20.37;15.37;;;;;;;13.19;90.99;99695.34;5028076;28;20208;-85
2022/09/15 01:49:17;;;;;;;22.53;14.47;;;;;;;13.15;91.16;99688.56;5028617;28;20288;-84
2022/09/15 01:51:45;;;;;;;23.17;14.83;;;;;;;13.14;91.45;99689.50;5030746;28;20230;-83
2022/09/15 01:54:15;;;;;;;26.20;15.33;;;;;;;13.13;91.54;99689.66;5032155;28;20206;-83
2022/09/15 01:56:42;;;;;;;20.70;14.97;;;;;;;13.12;91.61;99693.31;5033741;28;20628;-84
2022/09/15 01:59:09;;;;;;;21.20;14.83;;;;;;;13.09;91.73;99682.88;5032413;28;20208;-84
2022/09/15 02:01:43;;;;;;;21.60;14.60;;;;;;;13.07;91.45;99680.38;5031538;28;20262;-85
2022/09/15 02:04:16;;;;;;;23.80;15.27;;;;;;;13.06;91.90;99691.19;5036297;28;20254;-84
2022/09/15 02:06:52;;;;;;;21.53;13.97;;;;;;;13.04;91.50;99683.31;5027814;28;20205;-83
2022/09/15 02:09:24;;;;;;;23.43;15.53;;;;;;;13.04;91.86;99682.47;5024635;28;20210;-83
2022/09/15 02:11:57;;;;;;;22.13;14.40;;;;;;;13.02;91.87;99692.44;5031393;28;20233;-83
2022/09/15 02:14:37;;;;;;;25.57;13.97;;;;;;;13.01;92.10;99683.56;5031654;28;20688;-83
2022/09/15 02:17:04;;;;;;;23.87;14.27;;;;;;;13.00;92.10;99689.91;5032073;28;20566;-84
2022/09/15 02:19:36;;;;;;;22.73;13.90;;;;;;;13.00;92.39;99687.22;5026666;28;20697;-83
2022/09/15 02:22:09;;;;;;;26.87;15.67;;;;;;;12.99;92.33;99688.22;5030934;28;20238;-84
2022/09/15 02:24:40;;;;;;;26.90;16.07;;;;;;;13.00;92.13;99691.72;5024024;28;20225;-83
2022/09/15 02:27:11;;;;;;;25.37;14.23;;;;;;;12.99;92.69;99688.22;5029488;28;20226;-84
2022/09/15 02:29:39;;;;;;;22.77;15.53;;;;;;;12.98;92.66;99691.88;5031107;28;20206;-84
2022/09/15 02:32:08;;;;;;;25.03;16.13;;;;;;;12.96;92.47;99693.81;5035541;28;20693;-83
2022/09/15 02:34:41;;;;;;;26.00;15.50;;;;;;;12.95;92.79;99699.28;5031655;28;20206;-83
2022/09/15 02:37:09;;;;;;;24.73;15.90;;;;;;;12.94;92.72;99698.44;5029443;28;20210;-83
2022/09/15 02:39:42;;;;;;;24.60;15.00;;;;;;;12.93;92.83;99701.25;5027545;28;20202;-83
2022/09/15 02:42:09;;;;;;;23.97;15.83;;;;;;;12.91;92.58;99705.88;5031308;28;20230;-83
2022/09/15 02:44:36;;;;;;;25.60;15.97;;;;;;;12.91;92.57;99705.88;5025428;28;20208;-83
2022/09/15 02:47:03;;;;;;;24.60;15.60;;;;;;;12.88;92.83;99704.34;5035487;28;20200;-83
2022/09/15 02:49:29;;;;;;;21.87;15.47;;;;;;;12.87;92.84;99702.66;5030073;28;20229;-83
2022/09/15 02:51:57;;;;;;;26.33;15.23;;;;;;;12.85;92.33;99715.31;5032916;28;20229;-83
2022/09/15 02:54:24;;;;;;;27.77;16.73;;;;;;;12.82;92.35;99707.56;5029502;28;20210;-83
2022/09/15 02:56:50;;;;;;;28.50;16.30;;;;;;;12.78;92.67;99706.13;5033913;28;20229;-83
2022/09/15 02:59:16;;;;;;;26.53;17.10;;;;;;;12.76;92.71;99705.41;5026615;28;20569;-83
2022/09/15 03:01:43;;;;;;;25.60;16.23;;;;;;;12.71;92.53;99705.00;5022707;28;20621;-84
2022/09/15 03:04:10;;;;;;;25.20;16.30;;;;;;;12.70;92.63;99703.28;5029747;28;20237;-83
2022/09/15 03:06:36;;;;;;;25.93;16.07;;;;;;;12.67;92.70;99704.41;5029699;28;20206;-83
2022/09/15 03:09:06;;;;;;;23.90;17.03;;;;;;;12.65;92.92;99694.81;5033077;28;20301;-83
2022/09/15 03:11:34;;;;;;;27.10;16.87;;;;;;;12.64;93.02;99698.47;5029218;28;20316;-83
2022/09/15 03:14:02;;;;;;;25.60;16.70;;;;;;;12.62;93.26;99706.63;5031943;28;20209;-83
2022/09/15 03:16:31;;;;;;;31.10;17.80;;;;;;;12.60;93.39;99694.38;5032519;28;20684;-83
2022/09/15 03:18:59;;;;;;;28.93;17.60;;;;;;;12.59;93.91;99700.69;5033938;28;20206;-83
2022/09/15 03:21:28;;;;;;;34.10;17.47;;;;;;;12.58;93.96;99705.19;5031384;28;20228;-83
2022/09/15 03:23:54;;;;;;;31.37;18.97;;;;;;;12.56;93.83;99704.47;5033053;28;20831;-84
2022/09/15 03:26:22;;;;;;;28.57;17.43;;;;;;;12.56;93.99;99701.78;5031346;28;20205;-82
2022/09/15 03:28:49;;;;;;;29.70;18.77;;;;;;;12.55;93.95;99696.59;5031361;28;20214;-83
2022/09/15 03:31:15;;;;;;;31.03;18.93;;;;;;;12.53;94.53;99702.09;5031894;28;20719;-83
2022/09/15 03:33:42;;;;;;;31.87;19.43;;;;;;;12.51;94.60;99699.53;5033535;28;20203;-83
2022/09/15 03:36:09;;;;;;;29.73;18.93;;;;;;;12.50;94.72;99703.19;5030052;28;20230;-83
2022/09/15 03:38:35;;;;;;;30.17;18.27;;;;;;;12.49;94.79;99701.50;5029846;28;20221;-83
2022/09/15 03:41:06;;;;;;;31.67;19.00;;;;;;;12.48;95.01;99706.97;5030031;28;20237;-83
2022/09/15 03:43:35;;;;;;;32.17;19.23;;;;;;;12.48;94.72;99698.97;5032564;28;20811;-84
2022/09/15 03:46:03;;;;;;;31.60;18.40;;;;;;;12.46;94.95;99703.59;5032271;28;20215;-83
2022/09/15 03:48:32;;;;;;;30.73;18.43;;;;;;;12.46;94.98;99700.91;5030938;28;20566;-85
2022/09/15 03:50:58;;;;;;;31.30;19.90;;;;;;;12.44;94.99;99703.72;5030954;28;20226;-84
2022/09/15 03:53:25;;;;;;;33.83;19.47;;;;;;;12.42;95.52;99700.31;5031902;28;20217;-84
2022/09/15 03:55:51;;;;;;;33.53;19.67;;;;;;;12.43;95.52;99704.69;5031722;28;20228;-82
2022/09/15 03:58:18;;;;;;;31.77;19.30;;;;;;;12.42;95.72;99700.31;5031820;28;20217;-83
2022/09/15 04:00:47;;;;;;;34.33;18.77;;;;;;;12.41;95.83;99698.63;5031324;28;20232;-83
2022/09/15 04:03:14;;;;;;;32.43;19.20;;;;;;;12.41;95.93;99698.63;5033724;28;20221;-83
2022/09/15 04:05:40;;;;;;;34.90;18.97;;;;;;;12.40;95.82;99699.59;5034833;28;20206;-83
2022/09/15 04:08:10;;;;;;;29.57;17.60;;;;;;;12.41;95.87;99698.63;5030960;28;20248;-83
2022/09/15 04:10:38;;;;;;;29.30;17.50;;;;;;;12.42;96.01;99696.81;5029694;28;20202;-82
2022/09/15 04:13:04;;;;;;;27.53;17.90;;;;;;;12.42;96.05;99699.47;5029681;28;20210;-83
2022/09/15 04:15:31;;;;;;;29.50;18.13;;;;;;;12.44;96.18;99697.53;5030873;28;20203;-83
2022/09/15 04:17:59;;;;;;;28.97;17.17;;;;;;;12.45;96.20;99699.22;5030379;28;20565;-83
2022/09/15 04:20:25;;;;;;;28.07;17.40;;;;;;;12.47;96.40;99702.59;5032706;28;20771;-82
2022/09/15 04:22:52;;;;;;;31.13;17.67;;;;;;;12.48;96.42;99705.16;5031894;28;20213;-83
2022/09/15 04:25:18;;;;;;;29.30;16.77;;;;;;;12.51;96.41;99704.88;5033166;28;20221;-83
2022/09/15 04:27:44;;;;;;;27.30;16.70;;;;;;;12.52;96.67;99703.06;5031572;28;20219;-83
2022/09/15 04:30:12;;;;;;;31.97;17.20;;;;;;;12.52;96.69;99706.59;5036092;28;20202;-84
2022/09/15 04:32:38;;;;;;;26.13;15.60;;;;;;;12.54;96.75;99711.75;5031448;28;20226;-82
2022/09/15 04:35:07;;;;;;;26.03;16.80;;;;;;;12.56;96.64;99701.78;5029167;28;20854;-82
2022/09/15 04:37:34;;;;;;;26.80;15.60;;;;;;;12.55;96.27;99702.78;5033189;28;20707;-85
2022/09/15 04:40:01;;;;;;;26.57;16.43;;;;;;;12.57;96.07;99705.31;5030426;28;20206;-85
2022/09/15 04:42:27;;;;;;;29.90;16.97;;;;;;;12.56;95.98;99709.81;5028791;28;20258;-83
2022/09/15 04:44:54;;;;;;;29.27;16.07;;;;;;;12.57;95.90;99698.16;5031352;28;20214;-83
2022/09/15 04:47:20;;;;;;;27.23;17.00;;;;;;;12.60;95.87;99697.03;5029540;28;20201;-83
2022/09/15 04:49:47;;;;;;;24.80;16.03;;;;;;;12.61;95.74;99702.25;5029041;28;20209;-82
2022/09/15 04:52:15;;;;;;;23.73;15.43;;;;;;;12.62;95.77;99695.09;5030503;28;20257;-83
2022/09/15 04:54:41;;;;;;;24.73;15.00;;;;;;;12.62;95.60;99701.28;5039536;28;20225;-85
2022/09/15 04:57:08;;;;;;;26.27;16.27;;;;;;;12.63;95.50;99694.09;5036122;28;20225;-83
2022/09/15 04:59:35;;;;;;;26.90;15.27;;;;;;;12.63;95.38;99692.28;5028800;28;20814;-83
2022/09/15 05:02:02;;;;;;;24.30;15.77;;;;;;;12.63;95.41;99702.13;5035159;28;20225;-83
2022/09/15 05:04:28;;;;;;;28.43;16.10;;;;;;;12.64;95.39;99707.34;5031333;28;20214;-83
2022/09/15 05:06:55;;;;;;;23.47;14.83;;;;;;;12.65;95.12;99710.84;5028542;28;20218;-83
2022/09/15 05:09:22;;;;;;;24.47;13.90;;;;;;;12.65;95.22;99711.69;5025505;28;20199;-83
2022/09/15 05:11:49;;;;;;;19.30;14.13;;;;;;;12.68;94.86;99710.59;5026989;28;20226;-83
2022/09/15 05:14:15;;;;;;;21.97;13.93;;;;;;;12.68;95.02;99715.94;5035784;28;20543;-83
2022/09/15 05:16:42;;;;;;;22.87;15.13;;;;;;;12.70;94.80;99716.66;5038535;28;20233;-83
2022/09/15 05:19:10;;;;;;;21.67;14.80;;;;;;;12.71;94.80;99716.53;5035662;28;20213;-83
2022/09/15 05:21:36;;;;;;;22.53;15.40;;;;;;;12.74;94.71;99715.38;5035009;28;20230;-83
2022/09/15 05:24:03;;;;;;;27.97;16.57;;;;;;;12.74;94.76;99720.72;5033889;28;20218;-83
2022/09/15 05:26:31;;;;;;;23.03;16.17;;;;;;;12.75;94.54;99715.25;5038349;28;20228;-84
2022/09/15 05:28:58;;;;;;;25.53;16.40;;;;;;;12.76;94.94;99722.28;5037298;28;20808;-84
2022/09/15 05:31:27;;;;;;;26.10;16.60;;;;;;;12.79;94.93;99722.03;5030171;28;20730;-82
2022/09/15 05:33:54;;;;;;;27.43;16.60;;;;;;;12.81;95.00;99721.91;5026115;28;20202;-82
2022/09/15 05:36:23;;;;;;;26.00;16.57;;;;;;;12.82;94.80;99723.59;5032482;28;20557;-82
2022/09/15 05:38:50;;;;;;;25.33;17.07;;;;;;;12.85;94.70;99728.66;5033489;28;20663;-85
2022/09/15 05:41:18;;;;;;;26.40;16.17;;;;;;;12.87;94.75;99724.03;5034225;28;20610;-83
2022/09/15 05:43:47;;;;;;;25.90;16.93;;;;;;;12.89;94.85;99726.59;5031925;28;20202;-82
2022/09/15 05:46:15;;;;;;;29.13;17.83;;;;;;;12.92;94.69;99726.28;5032070;28;20199;-83
2022/09/15 05:48:42;;;;;;;23.40;15.77;;;;;;;12.92;94.94;99724.47;5032414;28;20693;-82
2022/09/15 05:51:08;;;;;;;25.67;16.10;;;;;;;12.96;94.89;99725.03;5032724;28;20229;-83
2022/09/15 05:53:36;;;;;;;24.53;15.07;;;;;;;12.98;94.73;99718.59;5030997;28;20214;-82
2022/09/15 05:56:04;;;;;;;24.97;16.67;;;;;;;13.01;94.84;99718.31;5028326;28;20206;-82
2022/09/15 05:58:31;;;;;;;26.73;15.70;;;;;;;13.05;95.10;99721.59;5038649;28;20201;-82
2022/09/15 06:01:06;;;;;;;33.77;17.93;;;;;;;13.08;94.85;99730.16;5033922;28;20222;-82
2022/09/15 06:03:33;;;;;;;25.00;16.30;;;;;;;13.11;94.77;99721.88;5031980;28;20285;-82
2022/09/15 06:06:00;;;;;;;24.07;16.53;;;;;;;13.12;94.47;99725.38;5033737;28;20202;-83
2022/09/15 06:08:30;;;;;;;26.63;16.97;;;;;;;13.14;94.90;99726.94;5032617;28;20211;-82
2022/09/15 06:11:01;;;;;;;24.87;16.77;;;;;;;13.15;94.45;99720.66;5033136;28;20722;-81
2022/09/15 06:13:27;;;;;;;26.47;17.23;;;;;;;13.18;94.81;99719.53;5032402;28;20214;-82
2022/09/15 06:15:54;;;;;;;24.20;16.70;;;;;;;13.20;94.74;99730.94;5031953;28;20214;-83
2022/09/15 06:18:22;;;;;;;22.20;15.37;;;;;;;13.23;94.72;99732.50;5027348;28;20284;-83
2022/09/15 06:20:49;;;;;;;25.63;16.17;;;;;;;13.25;94.81;99738.56;5032995;28;20234;-84
2022/09/15 06:23:15;;;;;;;24.20;15.10;;;;;;;13.28;94.72;99738.25;5035295;28;20207;-80
2022/09/15 06:25:42;;;;;;;30.27;17.43;;;;;;;13.30;94.68;99739.81;5032680;28;20214;-82
2022/09/15 06:28:08;;;;;;;26.53;15.97;;;;;;;13.33;94.80;99739.56;5033330;28;20213;-83
2022/09/15 06:30:35;;;;;;;21.13;14.50;;;;;;;13.35;94.68;99737.59;5033404;28;20214;-83
2022/09/15 06:33:02;;;;;;;24.27;15.40;;;;;;;13.38;94.28;99742.69;5034147;28;20217;-81
2022/09/15 06:35:30;;;;;;;23.60;15.83;;;;;;;13.40;94.37;99737.19;5033879;28;20217;-82
2022/09/15 06:37:56;;;;;;;22.90;14.93;;;;;;;13.41;94.33;99746.91;5034000;28;20245;-84
2022/09/15 06:40:23;;;;;;;26.20;16.20;;;;;;;13.44;94.03;99741.25;5033922;28;20202;-82
2022/09/15 06:42:49;;;;;;;22.73;15.33;;;;;;;13.46;94.15;99737.47;5034565;28;20210;-82
2022/09/15 06:45:16;;;;;;;23.63;14.53;;;;;;;13.49;94.33;99739.03;5032914;28;20213;-80
2022/09/15 06:47:42;;;;;;;19.53;14.27;;;;;;;13.52;93.88;99738.75;5032468;28;20199;-82
2022/09/15 06:50:09;;;;;;;19.07;13.40;;;;;;;13.54;93.82;99747.50;5033437;28;20285;-83
2022/09/15 06:52:37;;;;;;;20.80;14.10;;;;;;;13.57;93.75;99752.56;5033363;28;20920;-84
2022/09/15 06:55:04;;;;;;;18.83;13.80;;;;;;;13.59;94.15;99752.44;5031441;28;20202;-85
2022/09/15 06:57:30;;;;;;;22.27;14.77;;;;;;;13.62;93.88;99758.34;5031908;28;20230;-83
2022/09/15 06:59:57;;;;;;;25.30;14.67;;;;;;;13.64;93.92;99745.66;5033646;28;20304;-85
2022/09/15 07:02:23;;;;;;;19.73;13.83;;;;;;;13.67;93.57;99757.94;5033191;28;20229;-82
2022/09/15 07:04:50;;;;;;;20.70;13.37;;;;;;;13.72;93.61;99763.72;5025869;28;20213;-84
2022/09/15 07:07:16;;;;;;;18.67;12.87;;;;;;;13.76;93.65;99767.81;5031049;28;20202;-81
2022/09/15 07:09:44;;;;;;;17.13;13.47;;;;;;;13.80;93.88;99766.53;5037877;28;20206;-82
2022/09/15 07:12:10;;;;;;;16.77;12.83;;;;;;;13.84;93.61;99763.44;5033825;28;20265;-82
2022/09/15 07:14:37;;;;;;;16.30;12.77;;;;;;;13.88;93.45;99758.66;5032844;28;20210;-82
2022/09/15 07:17:04;;;;;;;19.03;13.43;;;;;;;13.93;93.07;99764.44;5029559;28;20230;-82
2022/09/15 07:19:30;;;;;;;19.70;12.83;;;;;;;13.96;93.29;99755.31;5025154;28;20229;-82
2022/09/15 07:21:56;;;;;;;16.90;11.47;;;;;;;14.01;92.94;99761.91;5031207;28;20230;-82
2022/09/15 07:24:23;;;;;;;13.47;11.40;;;;;;;14.06;92.70;99764.16;5030845;28;20202;-82
2022/09/15 07:26:51;;;;;;;14.87;11.10;;;;;;;14.08;92.49;99762.19;5031234;28;20224;-83
2022/09/15 07:29:17;;;;;;;15.90;10.60;;;;;;;14.12;92.19;99771.66;5032770;28;20624;-83
2022/09/15 07:31:44;;;;;;;13.77;11.10;;;;;;;14.13;92.29;99770.66;5033073;28;20218;-81
2022/09/15 07:34:11;;;;;;;14.27;10.20;;;;;;;14.16;92.11;99776.56;5024490;28;20204;-83
2022/09/15 07:36:37;;;;;;;16.33;10.83;;;;;;;14.19;91.77;99781.63;5030221;28;20637;-84
2022/09/15 07:39:05;;;;;;;13.57;10.00;;;;;;;14.23;91.91;99782.19;5028952;28;20209;-84
2022/09/15 07:41:32;;;;;;;12.57;9.27;;;;;;;14.25;91.54;99778.41;5031488;28;20226;-82
2022/09/15 07:44:00;;;;;;;15.47;8.97;;;;;;;14.30;91.08;99769.09;5028051;28;20874;-83
2022/09/15 07:46:30;;;;;;;18.60;9.37;;;;;;;14.33;90.99;99772.31;5029281;28;20207;-82
2022/09/15 07:48:56;;;;;;;12.63;9.03;;;;;;;14.38;91.11;99771.91;5028656;28;20227;-83
2022/09/15 07:51:24;;;;;;;14.57;9.67;;;;;;;14.43;90.41;99781.25;5029024;28;20225;-84
2022/09/15 07:53:51;;;;;;;15.03;9.63;;;;;;;14.47;90.51;99779.97;5030091;28;20198;-83
2022/09/15 07:56:18;;;;;;;16.20;9.40;;;;;;;14.49;90.18;99780.69;5028538;28;20209;-82
2022/09/15 07:58:45;;;;;;;11.07;9.77;;;;;;;14.53;89.88;99786.56;5029181;28;20304;-82
2022/09/15 08:01:14;;;;;;;15.37;10.47;;;;;;;14.56;89.67;99783.59;5026819;28;20227;-81
2022/09/15 08:03:41;;;;;;;27.47;9.70;;;;;;;14.59;89.11;99788.69;5028785;28;20560;-82
2022/09/15 08:06:08;;;;;;;26.57;10.20;;;;;;;14.62;88.59;99792.91;5028784;28;20242;-83
2022/09/15 08:08:37;;;;;;;10.60;7.43;;;;;;;14.65;88.56;99798.84;5029416;28;20209;-82
2022/09/15 08:11:07;;;;;;;12.43;8.73;;;;;;;14.66;87.95;99788.97;5029225;28;20306;-82
2022/09/15 08:13:33;;;;;;;11.40;8.00;;;;;;;14.70;88.10;99785.00;5028636;28;20203;-82
2022/09/15 08:16:05;;;;;;;13.17;8.60;;;;;;;14.74;88.09;99794.44;5031146;28;20596;-83
2022/09/15 08:18:33;;;;;;;10.53;8.10;;;;;;;14.78;87.79;99798.53;5024684;28;20215;-82
2022/09/15 08:20:59;;;;;;;12.47;8.13;;;;;;;14.83;87.30;99801.63;5023843;28;20222;-83
2022/09/15 08:23:26;;;;;;;10.57;7.60;;;;;;;14.86;86.87;99799.50;5027315;28;20217;-82
2022/09/15 08:25:52;;;;;;;15.57;7.03;;;;;;;14.91;86.80;99802.56;5020294;28;20226;-82
2022/09/15 08:28:19;;;;;;;12.37;6.60;;;;;;;14.99;86.79;99812.59;5027115;28;20212;-82
2022/09/15 08:30:45;;;;;;;8.70;5.93;;;;;;;15.04;86.51;99804.97;5030170;28;20218;-83
2022/09/15 08:33:12;;;;;;;9.53;6.13;;;;;;;15.11;86.20;99815.94;5029466;28;20209;-82
2022/09/15 08:35:39;;;;;;;11.53;5.97;;;;;;;15.15;85.28;99810.13;5030397;28;20237;-83
2022/09/15 08:38:06;;;;;;;17.73;6.50;;;;;;;15.20;85.08;99812.38;5029175;28;20705;-81
2022/09/15 08:40:36;;;;;;;11.10;5.80;;;;;;;15.26;84.81;99815.31;5030387;28;20745;-83
2022/09/15 08:43:11;;;;;;;9.10;5.43;;;;;;;15.32;84.14;99818.41;5034435;28;20576;-83
2022/09/15 08:45:50;;;;;;;8.70;6.20;;;;;;;15.36;83.83;99817.13;5029655;28;20209;-83
2022/09/15 08:48:20;;;;;;;8.63;6.20;;;;;;;15.37;83.09;99816.13;5032485;28;20190;-83
2022/09/15 08:50:51;;;;;;;8.57;5.77;;;;;;;15.36;82.64;99819.81;5026761;28;20226;-83
2022/09/15 08:53:22;;;;;;;6.47;5.00;;;;;;;15.36;82.14;99820.66;5031007;28;20207;-82
2022/09/15 08:55:50;;;;;;;8.57;6.40;;;;;;;15.40;81.80;99818.53;5034627;28;20314;-81
2022/09/15 08:58:19;;;;;;;10.77;6.30;;;;;;;15.43;81.42;99826.25;5033855;28;20230;-83
2022/09/15 09:00:47;;;;;;;7.40;6.60;;;;;;;15.46;81.00;99818.75;5033278;28;20709;-82
2022/09/15 09:03:40;;;;;;;7.83;6.37;;;;;;;15.53;81.16;99830.59;5033872;28;20212;-82
2022/09/15 09:06:19;;;;;;;6.60;5.87;;;;;;;15.59;80.77;99827.31;5033737;28;20680;-83
2022/09/15 09:09:04;;;;;;;6.77;6.17;;;;;;;15.70;80.71;99828.97;5028190;28;20785;-83
2022/09/15 09:11:42;;;;;;;8.77;5.60;;;;;;;15.78;79.91;99823.69;5031938;28;20291;-83
2022/09/15 09:14:19;;;;;;;6.90;4.90;;;;;;;15.86;79.23;99814.91;5031700;28;20205;-84
2022/09/15 09:17:07;;;;;;;5.67;4.60;;;;;;;15.93;78.66;99814.16;5031948;28;20670;-83
2022/09/15 09:19:49;;;;;;;7.97;4.60;;;;;;;16.01;77.79;99820.59;5030760;28;20667;-83
2022/09/15 09:22:21;;;;;;;6.27;3.87;;;;;;;16.07;77.26;99820.84;5032686;28;20236;-84
2022/09/15 09:24:51;;;;;;;4.80;3.80;;;;;;;16.13;75.88;99817.53;5030494;28;20218;-83
2022/09/15 09:27:21;;;;;;;7.77;3.87;;;;;;;16.16;74.84;99825.28;5031973;28;20207;-83
2022/09/15 09:29:50;;;;;;;8.93;3.60;;;;;;;16.21;74.20;99822.13;5034458;28;20203;-82
2022/09/15 09:32:20;;;;;;;8.13;3.50;;;;;;;16.26;74.04;99815.31;5032490;28;20235;-83
2022/09/15 09:34:54;;;;;;;8.37;3.90;;;;;;;16.35;73.93;99813.53;5031601;28;20207;-83
2022/09/15 09:37:23;;;;;;;6.73;3.20;;;;;;;16.44;73.49;99815.31;5033623;28;20199;-83
2022/09/15 09:39:50;;;;;;;4.23;2.90;;;;;;;16.50;72.89;99822.72;5030026;28;20818;-83
2022/09/15 09:42:18;;;;;;;4.70;2.90;;;;;;;16.54;72.51;99813.38;5032660;28;20224;-83
2022/09/15 09:44:45;;;;;;;21.90;4.50;;;;;;;16.61;72.57;99819.81;5034331;28;20216;-83
2022/09/15 09:47:12;;;;;;;11.47;2.60;;;;;;;16.69;71.83;99815.53;5036923;28;20219;-83
2022/09/15 09:49:42;;;;;;;5.73;1.70;;;;;;;16.73;70.98;99811.53;5032229;28;20216;-83
2022/09/15 09:52:09;;;;;;;3.60;1.33;;;;;;;16.76;69.90;99811.22;5033161;28;20226;-82
2022/09/15 09:54:37;;;;;;;8.37;1.50;;;;;;;16.82;69.56;99813.28;5032092;28;20207;-82
2022/09/15 09:57:22;;;;;;;7.03;1.73;;;;;;;16.91;69.50;99806.94;5037380;28;20199;-83
2022/09/15 09:59:50;;;;;;;4.03;1.47;;;;;;;17.03;69.04;99811.06;5033598;28;20866;-83
2022/09/15 10:02:19;;;;;;;4.90;1.80;;;;;;;17.13;68.51;99798.34;5037646;28;20218;-83
2022/09/15 10:04:47;;;;;;;5.00;1.40;;;;;;;17.22;67.65;99800.06;5028423;28;20212;-83
2022/09/15 10:07:16;;;;;;;3.37;1.47;;;;;;;17.30;67.13;99797.44;5031724;28;20204;-83
2022/09/15 10:09:56;;;;;;;4.30;1.80;;;;;;;17.40;66.93;99799.13;5034735;28;20206;-83
2022/09/15 10:12:29;;;;;;;2.90;1.10;;;;;;;17.50;65.94;99794.50;5031518;28;20652;-82
2022/09/15 10:14:59;;;;;;;2.77;0.97;;;;;;;17.55;65.21;99782.25;5031917;28;20279;-83
2022/09/15 10:17:37;;;;;;;2.10;1.10;;;;;;;17.60;64.45;99787.13;5032464;28;20642;-83
2022/09/15 10:20:19;;;;;;;4.07;1.50;;;;;;;17.61;63.89;99796.88;5036077;28;20203;-83
2022/09/15 10:22:46;;;;;;;2.90;1.53;;;;;;;17.60;63.51;99785.25;5039553;28;20219;-84
2022/09/15 10:25:33;;;;;;;4.70;1.60;;;;;;;17.63;63.69;99797.56;5040955;28;20215;-83
2022/09/15 10:28:12;;;;;;;2.83;1.13;;;;;;;17.66;63.34;99783.81;5025988;28;20200;-83
2022/09/15 10:30:39;;;;;;;4.27;1.23;;;;;;;17.71;63.06;99786.88;5031881;28;20358;-83
2022/09/15 10:33:19;;;;;;;6.00;1.17;;;;;;;17.76;63.08;99784.50;5033135;28;20201;-84
2022/09/15 10:35:46;;;;;;;5.10;1.17;;;;;;;17.80;62.74;99785.03;5032289;28;20205;-83
2022/09/15 10:38:16;;;;;;;3.23;1.10;;;;;;;17.83;62.49;99776.63;5031586;28;20269;-83
2022/09/15 10:40:52;;;;;;;2.83;0.80;;;;;;;17.85;61.98;99772.75;5033094;28;20212;-83
2022/09/15 10:43:32;;;;;;;2.40;0.63;;;;;;;17.84;60.53;99773.75;5031390;28;20203;-82
2022/09/15 10:46:03;;;;;;;2.33;0.80;;;;;;;17.87;59.29;99776.13;5025387;28;20298;-83
2022/09/15 10:48:44;;;;;;;4.13;0.90;;;;;;;17.90;59.23;99773.13;5027728;28;20679;-83
2022/09/15 10:51:26;;;;;;;4.50;1.30;;;;;;;18.02;58.91;99771.78;5033295;28;20225;-83
2022/09/15 10:54:11;;;;;;;4.97;0.80;;;;;;;18.10;57.59;99772.78;5036687;28;20223;-83
2022/09/15 10:56:43;;;;;;;3.17;0.73;;;;;;;18.13;55.61;99772.44;5034556;28;20205;-82
2022/09/15 10:59:33;;;;;;;3.77;0.97;;;;;;;18.13;55.02;99773.28;5031147;28;20638;-83
2022/09/15 11:02:27;;;;;;;4.27;0.97;;;;;;;18.18;54.54;99775.50;5029552;28;20221;-83
2022/09/15 11:05:34;;;;;;;4.60;1.00;;;;;;;18.21;54.10;99772.47;5028514;28;20207;-83
2022/09/15 11:08:17;;;;;;;5.33;1.00;;;;;;;18.24;53.71;99778.38;5031435;28;20200;-84
2022/09/15 11:10:51;;;;;;;2.40;0.70;;;;;;;18.26;53.69;99784.44;5030313;28;20241;-83
2022/09/15 11:13:27;;;;;;;1.93;0.80;;;;;;;18.28;53.82;99776.16;5034208;28;20200;-83
2022/09/15 11:16:04;;;;;;;3.47;0.90;;;;;;;18.32;54.04;99781.06;5030688;28;20261;-83
2022/09/15 11:18:49;;;;;;;1.93;0.60;;;;;;;18.30;53.63;99782.22;5032517;28;20217;-83
2022/09/15 11:21:26;;;;;;;2.23;0.80;;;;;;;18.25;53.58;99787.31;5032915;28;20725;-84
2022/09/15 11:24:13;;;;;;;5.13;1.00;;;;;;;18.22;53.64;99793.88;5020559;28;20257;-83
2022/09/15 11:26:43;;;;;;;2.67;0.60;;;;;;;18.19;53.61;99798.75;5031493;28;20217;-83
2022/09/15 11:29:17;;;;;;;4.60;1.00;;;;;;;18.12;53.64;99795.00;5030939;28;20573;-84
2022/09/15 11:31:48;;;;;;;1.03;0.63;;;;;;;18.10;53.91;99791.63;5025464;28;20699;-84
2022/09/15 11:34:20;;;;;;;3.10;0.80;;;;;;;18.08;54.21;99799.91;5026888;28;20202;-83